x

South Kodiak - 310nm Ssw Of Kodiak, Ak (46066) Wave Buoy

8:50pm - Sat 6th Feb 2016 All times are UTC.

  • Sig Wave height 9.2ft
  • Swell Direction
  • Peak Period 11s
  • Average Period 6s
  • Wind
    34mph, 38mph gusts
  • Sea Temp 40°f
  • Air Temp 39°f
  • Sea Pressure 996mb

More Historic Weather Station data

Upgrade to MSW Pro to gain access to the past 30 days of data for over 8000 Wavebouys and Weather Stations around the globe.

Join Pro

Comparision Forecast

View Surf forecast
   
Sat 02/06 8:50pm 9ft 11s 6s 34 38 mph 996mb 40f 39f
7:50pm 9ft 10s 6s 29 36 mph 997.2mb 40f 39f
6:50pm 9ft 11s 7s 27 36 mph 998.2mb 40f 39f
5:50pm 9ft 11s 7s 25 34 mph 998.8mb 40f 39f
4:50pm 10ft 11s 8s 22 27 mph 999.6mb 40f 39f
3:50pm 14ft 11s 9s 18 22 mph 1000.3mb 40f 39f
2:50pm 11.5ft 12s 8s 16 20 mph 1001.2mb 40f 39f
1:50pm 13ft 12s 9s 13 20 mph 1001.4mb 40f 39f
12:50pm 12.5ft 12s 8s 9 13 mph 1001.9mb 40f 39f
11:50am 15.5ft 12s 9s 9 13 mph 1002mb 40f 39f
10:50am 15ft 13s 9s 9 13 mph 1001.9mb 40f 39f
9:50am 15ft 12s 9s 11 16 mph 1001.6mb 40f 39f
8:50am 15.5ft 12s 9s 13 16 mph 1001.4mb 40f 40f
7:50am 15ft 13s 9s 16 20 mph 1000.9mb 40f 39f
6:50am 14.5ft 12s 8s 18 22 mph 1000mb 40f 39f
5:50am 16.5ft 11s 9s 18 22 mph 999.5mb 40f 40f
4:50am 18ft 13s 9s 20 25 mph 998.3mb 40f 40f
3:50am 20.5ft 13s 9s 20 29 mph 997.5mb 40f 40f
2:50am 21.5ft 13s 10s 25 29 mph 996.4mb 40f 40f
1:50am 17.5ft 12s 9s 25 29 mph 995.7mb 40f 40f
12:50am 19.5ft 13s 9s 29 36 mph 995mb 40f 40f
Fri 02/05 11:50pm 17.5ft 12s 8s 31 38 mph 993.9mb 40f 41f
10:50pm 18.5ft 11s 8s 31 40 mph 992.9mb 40f 40f
9:50pm 17ft 12s 8s 29 36 mph 992mb 40f 41f
8:50pm 16.5ft 12s 8s 27 36 mph 991mb 40f 39f
7:50pm 16ft 12s 8s 29 36 mph 989.8mb 40f 39f
6:50pm 14.5ft 12s 8s 25 29 mph 988.7mb 40f 38f
4:50pm 15ft 12s 8s 25 31 mph 986.7mb 40f 36f
3:50pm 17ft 12s 9s 22 29 mph 986.2mb 40f 36f
2:50pm 14ft 11s 8s 22 29 mph 985.3mb 40f 38f
1:50pm 15ft 11s 8s 20 27 mph 984.8mb 40f 37f
12:50pm 17ft 12s 9s 16 18 mph 984.5mb 40f 34f
11:50am 18.5ft 11s 9s 22 29 mph 984.1mb 40f 37f
10:50am 19.5ft 12s 9s 25 29 mph 984.4mb 40f 37f
9:50am 19ft 13s 9s 27 43 mph 984.2mb 40f 37f
8:50am 18ft 12s 9s 25 31 mph 983.7mb 40f 37f
7:50am 19.5ft 12s 9s 27 34 mph 982.9mb 40f 38f
6:50am 17ft 12s 8s 27 31 mph 982.1mb 40f 38f
5:50am 17.5ft 12s 8s 31 40 mph 981.3mb 40f 38f
4:50am 16.5ft 11s 8s 29 36 mph 980.5mb 40f 39f
3:50am 17ft 13s 8s 29 38 mph 979.7mb 40f 38f
2:50am 16ft 11s 8s 27 34 mph 978.6mb 40f 39f
1:50am 15.5ft 11s 8s 34 43 mph 977.6mb 40f 38f
12:50am 14ft 12s 8s 31 43 mph 976.6mb 40f 38f
Thu 02/04 11:50pm 14ft 11s 8s 29 36 mph 975.6mb 40f 39f
10:50pm 13.5ft 11s 8s 27 34 mph 975.1mb 40f 40f
9:50pm 13ft 11s 7s 25 34 mph 974.5mb 40f 40f
8:50pm 13.5ft 11s 7s 25 31 mph 973.9mb 40f 38f
7:50pm 14ft 11s 8s 27 34 mph 972.9mb 41f 40f
6:50pm 14.5ft 11s 8s 25 31 mph 972.3mb 41f 39f
5:50pm 14ft 10s 7s 27 34 mph 971.4mb 41f 40f
4:50pm 14.5ft 11s 8s 27 34 mph 970.6mb 41f 40f
3:50pm 12ft 9s 7s 29 34 mph 970.2mb 41f 40f
2:50pm 12ft 10s 7s 29 38 mph 969.7mb 41f 39f
1:50pm 11ft 11s 7s 29 34 mph 969.4mb 41f 40f
12:50pm 10.5ft 11s 7s 25 34 mph 969.2mb 41f 40f
11:50am 10ft 11s 7s 27 34 mph 968.9mb 41f 40f
10:50am 10ft 10s 7s 22 27 mph 968.5mb 41f 40f
9:50am 10ft 10s 7s 20 27 mph 968.1mb 41f 40f
8:50am 10ft 11s 7s 20 25 mph 967.6mb 41f 40f
7:50am 11ft 12s 8s 20 27 mph 967.2mb 41f 40f
6:50am 11.5ft 9s 8s 18 22 mph 966.9mb 41f 39f
5:50am 10.5ft 11s 7s 20 25 mph 966.6mb 41f 40f
4:50am 11ft 11s 7s 18 22 mph 966.3mb 41f 40f
3:50am 12ft 11s 8s 20 25 mph 965.8mb 41f 40f
2:50am 11ft 13s 8s 20 22 mph 965.5mb 41f 40f
1:50am 12.5ft 12s 8s 20 25 mph 965.3mb 41f 40f
12:50am 12ft 13s 8s 20 27 mph 964.9mb 41f 40f
Wed 02/03 11:50pm 13ft 11s 8s 22 27 mph 964.8mb 41f 40f
10:50pm 13ft 14s 8s 25 31 mph 964.7mb 41f 40f
9:50pm 13ft 11s 8s 25 31 mph 964.6mb 41f 40f
8:50pm 13ft 10s 8s 25 31 mph 964.4mb 41f 40f
7:50pm 13.5ft 11s 8s 25 31 mph 963.8mb 41f 40f
6:50pm 13ft 10s 8s 22 29 mph 963.2mb 41f 41f
5:50pm 13ft 14s 8s 20 27 mph 962.7mb 41f 40f
4:50pm 15ft 11s 9s 16 25 mph 962.3mb 41f 40f
3:50pm 15ft 12s 9s 7 11 mph 962.3mb 41f 40f
2:50pm 16.5ft 11s 9s 2 7 mph 962.3mb 41f 40f
1:50pm 17.5ft 11s 9s 4 11 mph 962.5mb 41f 40f
12:50pm 16.5ft 11s 9s 7 13 mph 962.9mb 41f 41f
11:50am 17.5ft 14s 9s 11 18 mph 963.1mb 41f 41f
10:50am 18ft 11s 9s 16 20 mph 963.6mb 41f 41f
9:50am 19.5ft 11s 9s 22 29 mph 964.3mb 41f 41f
8:50am 19ft 11s 9s 25 34 mph 965.1mb 41f 41f
7:50am 20.5ft 16s 9s 25 31 mph 966.4mb 41f 41f
6:50am 24ft 15s 10s 27 36 mph 967.4mb 41f 41f
5:50am 23.5ft 12s 10s 29 38 mph 968.1mb 41f 41f
4:50am 25.5ft 15s 10s 27 34 mph 969.4mb 41f 41f
3:50am 26.5ft 14s 11s 25 34 mph 970.4mb 41f 41f
2:50am 29ft 15s 11s 27 36 mph 971.1mb 41f 41f
1:50am 27.5ft 15s 11s 29 36 mph 971.8mb 41f 41f
12:50am 25.5ft 14s 10s 29 38 mph 972.7mb 41f 41f
Tue 02/02 11:50pm 25ft 13s 10s 34 40 mph 973.7mb 41f 41f
10:50pm 23.5ft 13s 10s 34 43 mph 975mb 41f 41f
9:50pm 23ft 12s 9s 34 40 mph 976.3mb 41f 40f